Masontown, West Virginia
Current Conditions -  °F | °C
As of 9:53 AM on Sunday 21 Dec 2014 (Local Time) from KMGW Reporting Station
Overcast Overcast  
Wind Chill: 32°   Ceiling: 4500
Heat Index: 32°   Visibility: 10mi
Dew Point: 20°   Wind: 0mph
Humidity: 61%   Direction: NA
Pressure: 30.32"   Gusts: NA
Location:  39.55°N, 79.8°W
Report Text: KMGW 211453Z 00000KT 10SM OVC045 00/M07 A3032 RMK AO2 SLP280 T00001067 52006
Loading
Personal Weather Stations






























Interactive Weather Map New forecast layout! Learn more

10-Day Weather Forecast

Advertisements
Track Severe Weather on mobile